createdAt,value
2023-03-31T00:02:24.025Z,10.10
2023-03-31T00:04:54.159Z,10.10
2023-03-31T00:07:24.313Z,10.10
2023-03-31T00:10:03.652Z,10.10
2023-03-31T00:12:37.792Z,10.10
2023-03-31T00:15:05.019Z,10.10
2023-03-31T00:17:33.375Z,10.10
2023-03-31T00:20:04.809Z,10.10
2023-03-31T00:22:32.040Z,10.10
2023-03-31T00:25:01.779Z,10.10
2023-03-31T00:27:29.034Z,10.10
2023-03-31T00:29:55.937Z,10.10
2023-03-31T00:32:23.195Z,10.10
2023-03-31T00:34:52.712Z,10.00
2023-03-31T00:37:19.983Z,10.00
2023-03-31T00:39:46.918Z,10.00
2023-03-31T00:42:14.168Z,10.10
2023-03-31T00:45:00.288Z,10.00
2023-03-31T00:47:29.754Z,10.00
2023-03-31T00:49:58.012Z,10.00
2023-03-31T00:52:27.932Z,10.00
2023-03-31T00:54:56.701Z,9.90
2023-03-31T00:57:24.916Z,10.00
2023-03-31T00:59:53.758Z,9.90
2023-03-31T01:02:21.110Z,10.00
2023-03-31T01:04:57.466Z,10.00
2023-03-31T01:07:38.044Z,9.90
2023-03-31T01:10:05.504Z,9.90
2023-03-31T01:12:35.033Z,9.90
2023-03-31T01:15:03.407Z,9.90
2023-03-31T01:17:30.938Z,9.90
2023-03-31T01:20:14.794Z,9.90
2023-03-31T01:23:01.070Z,9.90
2023-03-31T01:25:38.822Z,9.90
2023-03-31T01:28:06.169Z,9.90
2023-03-31T01:30:53.369Z,9.90
2023-03-31T01:33:20.681Z,9.90
2023-03-31T01:36:09.611Z,10.00
2023-03-31T01:38:52.603Z,9.90
2023-03-31T01:41:26.425Z,9.90
2023-03-31T01:43:58.707Z,9.90
2023-03-31T01:46:25.603Z,9.90
2023-03-31T01:49:06.175Z,9.90
2023-03-31T01:51:49.864Z,9.80
2023-03-31T01:54:27.611Z,9.90
2023-03-31T01:57:17.690Z,9.90
2023-03-31T02:00:04.057Z,9.90
2023-03-31T02:02:46.317Z,9.90
2023-03-31T02:05:16.878Z,9.90
2023-03-31T02:07:48.134Z,9.90
2023-03-31T02:10:17.026Z,9.90
2023-03-31T02:12:44.313Z,9.90
2023-03-31T02:15:18.282Z,9.90
2023-03-31T02:17:51.211Z,9.90
2023-03-31T02:20:23.235Z,9.90
2023-03-31T02:22:53.969Z,9.90
2023-03-31T02:25:23.741Z,9.90
2023-03-31T02:27:58.143Z,9.90
2023-03-31T02:30:29.738Z,9.90
2023-03-31T02:32:58.018Z,9.80
2023-03-31T02:35:25.510Z,9.90
2023-03-31T02:37:55.007Z,9.90
2023-03-31T02:40:22.936Z,9.90
2023-03-31T02:42:51.680Z,9.80
2023-03-31T02:45:37.838Z,9.80
2023-03-31T02:48:10.551Z,9.80
2023-03-31T02:50:47.727Z,9.70
2023-03-31T02:53:32.018Z,9.50
2023-03-31T02:56:13.769Z,9.50
2023-03-31T02:58:40.670Z,9.60
2023-03-31T03:01:26.311Z,9.60
2023-03-31T03:04:01.748Z,9.60
2023-03-31T03:06:53.872Z,9.60
2023-03-31T03:09:49.362Z,9.50
2023-03-31T03:12:22.370Z,9.50
2023-03-31T03:14:55.786Z,9.50
2023-03-31T03:17:28.918Z,9.50
2023-03-31T03:19:58.737Z,9.50
2023-03-31T03:22:26.066Z,9.50
2023-03-31T03:24:53.546Z,9.40
2023-03-31T03:27:24.136Z,9.50
2023-03-31T03:29:51.159Z,9.50
2023-03-31T03:32:18.467Z,9.50
2023-03-31T03:34:45.476Z,9.50
2023-03-31T03:37:13.021Z,9.50
2023-03-31T03:39:40.034Z,9.50
2023-03-31T03:42:07.173Z,9.60
2023-03-31T03:44:34.192Z,9.60
2023-03-31T03:47:01.418Z,9.60
2023-03-31T03:49:28.292Z,9.60
2023-03-31T03:51:55.634Z,9.70
2023-03-31T03:54:22.583Z,9.70
2023-03-31T03:56:49.900Z,9.70
2023-03-31T03:59:16.949Z,9.60
2023-03-31T04:01:44.131Z,9.60
2023-03-31T04:04:11.014Z,9.60
2023-03-31T04:06:38.299Z,9.60
2023-03-31T04:09:05.370Z,9.60
2023-03-31T04:11:32.852Z,9.60
2023-03-31T04:13:59.779Z,9.60
2023-03-31T04:16:27.041Z,9.60
2023-03-31T04:18:56.764Z,9.60
2023-03-31T04:21:24.242Z,9.60
2023-03-31T04:23:59.167Z,9.60
2023-03-31T04:26:30.828Z,9.60
2023-03-31T04:29:00.268Z,9.60
2023-03-31T04:31:27.531Z,9.60
2023-03-31T04:33:54.539Z,9.60
2023-03-31T04:36:22.274Z,9.60
2023-03-31T04:38:54.903Z,9.60
2023-03-31T04:41:22.799Z,9.50
2023-03-31T04:43:49.883Z,9.60
2023-03-31T04:46:17.290Z,9.60
2023-03-31T04:48:47.309Z,9.70
2023-03-31T04:51:17.541Z,9.60
2023-03-31T04:53:44.440Z,9.90
2023-03-31T04:56:12.313Z,9.60
2023-03-31T04:58:39.329Z,9.60
2023-03-31T05:01:06.813Z,9.60
2023-03-31T05:03:36.722Z,9.60
2023-03-31T05:06:04.443Z,9.60
2023-03-31T05:08:31.824Z,9.60
2023-03-31T05:10:59.055Z,9.60
2023-03-31T05:13:26.202Z,9.60
2023-03-31T05:15:53.334Z,9.70
2023-03-31T05:18:23.642Z,9.60
2023-03-31T05:20:51.031Z,9.60
2023-03-31T05:23:17.905Z,9.70
2023-03-31T05:25:45.066Z,9.70
2023-03-31T05:28:12.050Z,9.70
2023-03-31T05:30:39.224Z,9.80
2023-03-31T05:33:06.262Z,9.80
2023-03-31T05:35:33.550Z,9.80
2023-03-31T05:38:00.473Z,9.90
2023-03-31T05:40:28.871Z,9.90
2023-03-31T05:42:55.842Z,10.00
2023-03-31T05:45:22.982Z,10.10
2023-03-31T05:47:50.007Z,10.30
2023-03-31T05:50:17.285Z,10.50
2023-03-31T05:52:44.202Z,10.70
2023-03-31T05:55:11.603Z,10.80
2023-03-31T05:57:38.543Z,10.90
2023-03-31T06:00:06.622Z,11.10
2023-03-31T06:02:33.718Z,11.80
2023-03-31T06:05:01.443Z,12.20
2023-03-31T06:07:28.373Z,12.70
2023-03-31T06:09:55.635Z,12.40
2023-03-31T06:12:22.606Z,12.10
2023-03-31T06:14:49.768Z,12.00
2023-03-31T06:17:16.734Z,12.00
2023-03-31T06:19:43.946Z,11.90
2023-03-31T06:22:11.198Z,12.00
2023-03-31T06:24:38.483Z,12.20
2023-03-31T06:27:06.332Z,12.50
2023-03-31T06:29:33.522Z,12.50
2023-03-31T06:32:01.370Z,12.50
2023-03-31T06:34:28.709Z,12.30
2023-03-31T06:36:55.621Z,12.10
2023-03-31T06:39:22.853Z,12.00
2023-03-31T06:41:49.771Z,11.90
2023-03-31T06:44:26.412Z,11.80
2023-03-31T06:46:53.287Z,11.70
2023-03-31T06:49:22.610Z,12.00
2023-03-31T06:51:49.528Z,12.30
2023-03-31T06:54:16.668Z,12.60
2023-03-31T06:56:43.571Z,12.80
2023-03-31T06:59:10.865Z,12.80
2023-03-31T07:01:39.158Z,12.80
2023-03-31T07:04:06.437Z,12.70
2023-03-31T07:06:34.231Z,12.80
2023-03-31T07:09:01.457Z,12.90
2023-03-31T07:11:28.418Z,12.80
2023-03-31T07:13:56.044Z,12.80
2023-03-31T07:16:23.686Z,12.80
2023-03-31T07:18:55.471Z,12.80
2023-03-31T07:21:22.551Z,12.90
2023-03-31T07:23:52.287Z,12.90
2023-03-31T07:26:19.249Z,12.70
2023-03-31T07:28:46.538Z,12.50
2023-03-31T07:31:14.188Z,12.60
2023-03-31T07:33:41.907Z,12.50
2023-03-31T07:36:12.833Z,12.50
2023-03-31T07:38:42.870Z,12.50
2023-03-31T07:41:10.834Z,12.50
2023-03-31T07:43:37.986Z,12.40
2023-03-31T07:46:06.158Z,12.30
2023-03-31T07:48:34.098Z,12.20
2023-03-31T07:51:01.584Z,12.30
2023-03-31T07:53:33.690Z,12.20
2023-03-31T07:56:00.702Z,12.10
2023-03-31T07:58:28.302Z,12.10
2023-03-31T08:00:55.707Z,12.10
2023-03-31T08:03:22.897Z,12.10
2023-03-31T08:05:53.011Z,12.10
2023-03-31T08:08:21.207Z,12.20
2023-03-31T08:10:48.309Z,12.30
2023-03-31T08:13:15.507Z,12.30
2023-03-31T08:15:42.546Z,12.30
2023-03-31T08:18:09.937Z,12.20
2023-03-31T08:20:40.356Z,12.40
2023-03-31T08:23:11.418Z,12.50
2023-03-31T08:25:38.565Z,12.50
2023-03-31T08:28:06.907Z,12.50
2023-03-31T08:30:34.344Z,12.40
2023-03-31T08:33:02.021Z,12.50
2023-03-31T08:35:29.173Z,12.50
2023-03-31T08:37:59.182Z,12.40
2023-03-31T08:40:27.272Z,12.50
2023-03-31T08:43:00.754Z,12.60
2023-03-31T08:45:31.156Z,12.70
2023-03-31T08:48:07.085Z,12.70
2023-03-31T08:50:36.204Z,12.90
2023-03-31T08:53:09.019Z,13.10
2023-03-31T08:55:49.324Z,13.10
2023-03-31T08:58:26.104Z,13.20
2023-03-31T09:01:17.199Z,13.30
2023-03-31T09:03:51.155Z,13.40
2023-03-31T09:06:27.062Z,13.60
2023-03-31T09:09:00.020Z,13.90
2023-03-31T09:11:38.876Z,14.00
2023-03-31T09:14:06.202Z,14.10
2023-03-31T09:16:33.165Z,14.10
2023-03-31T09:19:01.452Z,14.20
2023-03-31T09:21:31.820Z,14.20
2023-03-31T09:24:17.657Z,14.10
2023-03-31T09:26:53.119Z,14.00
2023-03-31T09:29:29.595Z,13.90
2023-03-31T09:32:07.115Z,13.90
2023-03-31T09:34:34.667Z,13.90
2023-03-31T09:37:01.851Z,14.10
2023-03-31T09:39:29.065Z,14.30
2023-03-31T09:41:56.697Z,14.40
2023-03-31T09:44:29.818Z,14.40
2023-03-31T09:46:58.064Z,14.50
2023-03-31T09:49:27.122Z,14.50
2023-03-31T09:52:09.601Z,14.60
2023-03-31T09:55:06.411Z,14.50
2023-03-31T09:57:39.608Z,14.70
2023-03-31T10:00:19.040Z,14.70
2023-03-31T10:02:50.886Z,14.90
2023-03-31T10:05:28.625Z,15.00
2023-03-31T10:08:14.481Z,15.10
2023-03-31T10:10:46.364Z,15.20
2023-03-31T10:13:16.112Z,15.00
2023-03-31T10:15:43.494Z,14.80
2023-03-31T10:18:14.696Z,14.80
2023-03-31T10:21:00.470Z,14.60
2023-03-31T10:23:29.230Z,14.60
2023-03-31T10:25:56.729Z,14.70
2023-03-31T10:28:24.072Z,14.60
2023-03-31T10:30:52.789Z,14.50
2023-03-31T10:33:23.859Z,14.70
2023-03-31T10:36:01.208Z,14.90
2023-03-31T10:38:31.717Z,15.00
2023-03-31T10:40:59.611Z,15.10
2023-03-31T10:43:28.545Z,15.20
2023-03-31T10:45:57.532Z,15.50
2023-03-31T10:48:28.214Z,15.70
2023-03-31T10:50:59.088Z,15.90
2023-03-31T10:53:26.652Z,15.90
2023-03-31T10:56:04.586Z,15.90
2023-03-31T10:58:47.013Z,16.10
2023-03-31T11:01:40.921Z,16.10
2023-03-31T11:04:26.358Z,16.10
2023-03-31T11:07:02.817Z,16.00
2023-03-31T11:09:44.091Z,16.00
2023-03-31T11:12:17.270Z,16.00
2023-03-31T11:14:44.470Z,16.10
2023-03-31T11:17:19.799Z,16.20
2023-03-31T11:19:46.863Z,16.40
2023-03-31T11:22:31.564Z,16.50
2023-03-31T11:25:10.124Z,16.60
2023-03-31T11:27:49.398Z,16.40
2023-03-31T11:30:16.344Z,16.20
2023-03-31T11:33:02.060Z,16.10
2023-03-31T11:35:56.805Z,16.20
2023-03-31T11:38:27.419Z,16.40
2023-03-31T11:41:07.537Z,16.80
2023-03-31T11:43:46.738Z,17.30
2023-03-31T11:46:13.845Z,17.50
2023-03-31T11:49:00.120Z,17.50
2023-03-31T11:51:29.543Z,17.40
2023-03-31T11:53:58.616Z,17.20
2023-03-31T11:56:34.775Z,17.00
2023-03-31T11:59:03.084Z,16.90
2023-03-31T12:01:36.174Z,16.90
2023-03-31T12:04:09.722Z,16.70
2023-03-31T12:06:40.126Z,16.80
2023-03-31T12:09:11.947Z,16.90
2023-03-31T12:11:59.463Z,17.00
2023-03-31T12:14:32.641Z,17.30
2023-03-31T12:17:13.229Z,17.50
2023-03-31T12:19:41.109Z,17.70
2023-03-31T12:22:12.087Z,18.00
2023-03-31T12:24:39.275Z,18.20
2023-03-31T12:27:27.722Z,18.30
2023-03-31T12:29:58.058Z,18.30
2023-03-31T12:32:30.292Z,18.30
2023-03-31T12:35:03.207Z,18.10
2023-03-31T12:37:36.782Z,18.00
2023-03-31T12:40:13.191Z,18.00
2023-03-31T12:42:43.188Z,18.00
2023-03-31T12:45:10.574Z,18.00
2023-03-31T12:47:46.519Z,17.90
2023-03-31T12:50:28.270Z,17.90
2023-03-31T12:53:14.041Z,17.80
2023-03-31T12:55:54.210Z,17.50
2023-03-31T12:58:30.197Z,17.20
2023-03-31T13:01:16.573Z,16.90
2023-03-31T13:03:43.751Z,16.80
2023-03-31T13:06:31.625Z,16.80
2023-03-31T13:09:00.988Z,16.80
2023-03-31T13:11:37.531Z,16.90
2023-03-31T13:14:07.064Z,16.80
2023-03-31T13:16:35.578Z,16.80
2023-03-31T13:19:02.655Z,16.80
2023-03-31T13:21:29.876Z,16.80
2023-03-31T13:24:01.044Z,16.70
2023-03-31T13:26:34.530Z,16.80
2023-03-31T13:29:17.468Z,16.80
2023-03-31T13:32:02.968Z,16.60
2023-03-31T13:34:32.956Z,16.60
2023-03-31T13:37:09.323Z,16.30
2023-03-31T13:39:49.170Z,16.20
2023-03-31T13:42:35.553Z,16.00
2023-03-31T13:45:05.490Z,15.90
2023-03-31T13:47:48.606Z,15.80
2023-03-31T13:50:54.582Z,15.60
2023-03-31T13:53:24.692Z,15.40
2023-03-31T13:56:11.304Z,15.20
2023-03-31T13:58:57.139Z,15.00
2023-03-31T14:01:33.030Z,14.90
2023-03-31T14:04:06.176Z,14.80
2023-03-31T14:06:45.386Z,14.70
2023-03-31T14:09:20.558Z,14.60
2023-03-31T14:11:47.526Z,14.70
2023-03-31T14:14:18.663Z,14.90
2023-03-31T14:16:51.087Z,15.10
2023-03-31T14:19:36.814Z,15.20
2023-03-31T14:22:19.238Z,15.20
2023-03-31T14:24:52.576Z,15.20
2023-03-31T14:27:29.269Z,15.20
2023-03-31T14:29:57.873Z,15.20
2023-03-31T14:32:31.931Z,15.20
2023-03-31T14:35:13.814Z,15.20
2023-03-31T14:37:41.133Z,15.10
2023-03-31T14:40:13.299Z,15.10
2023-03-31T14:42:40.787Z,15.00
2023-03-31T14:45:19.659Z,15.10
2023-03-31T14:47:57.164Z,15.20
2023-03-31T14:50:33.604Z,15.40
2023-03-31T14:53:02.269Z,15.50
2023-03-31T14:55:44.161Z,15.50
2023-03-31T14:58:25.734Z,15.50
2023-03-31T15:00:53.980Z,15.50
2023-03-31T15:03:22.368Z,15.50
2023-03-31T15:05:51.461Z,15.50
2023-03-31T15:08:20.669Z,15.70
2023-03-31T15:10:56.283Z,15.70
2023-03-31T15:13:38.861Z,15.60
2023-03-31T15:16:21.897Z,15.60
2023-03-31T15:18:48.906Z,15.70
2023-03-31T15:21:23.819Z,15.70
2023-03-31T15:23:57.096Z,15.80
2023-03-31T15:26:34.607Z,15.70
2023-03-31T15:29:26.728Z,15.60
2023-03-31T15:31:56.303Z,15.40
2023-03-31T15:34:31.374Z,15.30
2023-03-31T15:36:59.240Z,15.20
2023-03-31T15:39:27.315Z,15.10
2023-03-31T15:41:56.136Z,15.20
2023-03-31T15:44:35.085Z,15.10
2023-03-31T15:47:06.588Z,15.10
2023-03-31T15:49:33.584Z,15.00
2023-03-31T15:52:02.302Z,15.10
2023-03-31T15:54:31.693Z,15.10
2023-03-31T15:57:02.927Z,15.00
2023-03-31T15:59:41.650Z,15.00
2023-03-31T16:02:15.724Z,15.00
2023-03-31T16:04:42.710Z,14.90
2023-03-31T16:07:16.202Z,14.80
2023-03-31T16:10:01.360Z,14.80
2023-03-31T16:12:37.699Z,14.70
2023-03-31T16:15:06.609Z,14.50
2023-03-31T16:17:34.107Z,14.40
2023-03-31T16:20:20.594Z,14.20
2023-03-31T16:22:49.931Z,14.10
2023-03-31T16:25:21.269Z,14.00
2023-03-31T16:27:53.518Z,14.00
2023-03-31T16:30:21.807Z,13.90
2023-03-31T16:33:00.846Z,13.90
2023-03-31T16:35:33.607Z,13.90
2023-03-31T16:38:01.925Z,13.80
2023-03-31T16:40:29.815Z,13.80
2023-03-31T16:43:07.097Z,13.80
2023-03-31T16:45:34.078Z,13.80
2023-03-31T16:48:15.127Z,13.60
2023-03-31T16:50:44.108Z,13.50
2023-03-31T16:53:12.699Z,13.20
2023-03-31T16:55:39.812Z,12.90
2023-03-31T16:58:09.996Z,12.70
2023-03-31T17:00:37.101Z,13.00
2023-03-31T17:03:04.992Z,12.60
2023-03-31T17:05:34.147Z,12.50
2023-03-31T17:08:04.028Z,12.50
2023-03-31T17:10:31.214Z,12.40
2023-03-31T17:12:58.383Z,12.40
2023-03-31T17:15:25.654Z,12.20
2023-03-31T17:17:52.984Z,12.20
2023-03-31T17:20:20.059Z,12.20
2023-03-31T17:22:47.295Z,11.90
2023-03-31T17:25:18.891Z,11.80
2023-03-31T17:27:46.390Z,11.80
2023-03-31T17:30:13.673Z,11.80
2023-03-31T17:32:41.368Z,11.80
2023-03-31T17:35:13.314Z,11.70
2023-03-31T17:37:41.300Z,11.90
2023-03-31T17:40:08.578Z,11.70
2023-03-31T17:42:36.699Z,11.60
2023-03-31T17:45:04.087Z,11.70
2023-03-31T17:47:33.072Z,11.70
2023-03-31T17:50:01.086Z,11.70
2023-03-31T17:52:30.696Z,11.60
2023-03-31T17:54:57.888Z,11.60
2023-03-31T17:57:25.738Z,11.60
2023-03-31T17:59:57.506Z,11.60
2023-03-31T18:02:37.922Z,11.50
2023-03-31T18:05:06.855Z,11.40
2023-03-31T18:07:36.908Z,11.40
2023-03-31T18:10:05.289Z,11.40
2023-03-31T18:12:34.381Z,11.40
2023-03-31T18:15:02.828Z,11.40
2023-03-31T18:17:31.465Z,11.30
2023-03-31T18:19:59.406Z,11.30
2023-03-31T18:22:27.408Z,11.40
2023-03-31T18:24:57.444Z,11.30
2023-03-31T18:27:25.875Z,11.30
2023-03-31T18:29:52.907Z,11.30
2023-03-31T18:32:20.767Z,11.40
2023-03-31T18:34:49.433Z,11.30
2023-03-31T18:37:17.231Z,11.30
2023-03-31T18:39:46.577Z,11.20
2023-03-31T18:42:18.454Z,11.10
2023-03-31T18:44:45.450Z,11.10
2023-03-31T18:47:13.541Z,11.10
2023-03-31T18:49:40.712Z,11.20
2023-03-31T18:52:08.188Z,11.20
2023-03-31T18:54:35.237Z,11.20
2023-03-31T18:57:02.829Z,11.20
2023-03-31T18:59:29.864Z,11.20
2023-03-31T19:01:57.546Z,11.30
2023-03-31T19:04:24.831Z,11.30
2023-03-31T19:06:56.422Z,11.30
2023-03-31T19:09:26.058Z,11.20
2023-03-31T19:11:53.898Z,11.30
2023-03-31T19:14:21.001Z,11.30
2023-03-31T19:16:48.776Z,11.30
2023-03-31T19:19:16.308Z,11.30
2023-03-31T19:21:44.698Z,11.40
2023-03-31T19:24:11.915Z,11.40
2023-03-31T19:26:39.740Z,11.40
2023-03-31T19:29:06.966Z,11.40
2023-03-31T19:31:38.290Z,11.40
2023-03-31T19:34:06.016Z,11.40
2023-03-31T19:36:36.383Z,11.40
2023-03-31T19:39:04.912Z,11.40
2023-03-31T19:41:32.759Z,11.40
2023-03-31T19:43:59.657Z,11.40
2023-03-31T19:46:27.033Z,11.50
2023-03-31T19:48:54.428Z,11.40
2023-03-31T19:51:21.724Z,11.40
2023-03-31T19:53:48.674Z,11.40
2023-03-31T19:56:17.466Z,11.30
2023-03-31T19:58:44.946Z,11.20
2023-03-31T20:01:19.222Z,11.20
2023-03-31T20:03:46.944Z,11.20
2023-03-31T20:06:14.889Z,11.20
2023-03-31T20:08:42.805Z,11.20
2023-03-31T20:11:12.126Z,11.20
2023-03-31T20:13:39.813Z,11.20
2023-03-31T20:16:08.599Z,11.20
2023-03-31T20:18:36.667Z,11.10
2023-03-31T20:21:08.013Z,11.00
2023-03-31T20:23:36.532Z,10.90
2023-03-31T20:26:04.834Z,10.90
2023-03-31T20:28:32.596Z,10.80
2023-03-31T20:31:00.000Z,10.70
2023-03-31T20:33:29.805Z,10.70
2023-03-31T20:36:23.870Z,10.70
2023-03-31T20:38:52.365Z,10.70
2023-03-31T20:41:20.857Z,10.70
2023-03-31T20:43:48.287Z,10.60
2023-03-31T20:46:18.245Z,10.50
2023-03-31T20:48:47.744Z,10.50
2023-03-31T20:51:17.291Z,10.40
2023-03-31T20:53:45.405Z,10.50
2023-03-31T20:56:17.737Z,10.40
2023-03-31T20:58:44.874Z,10.40
2023-03-31T21:01:13.104Z,10.40
2023-03-31T21:03:40.362Z,10.30
2023-03-31T21:06:11.195Z,10.40
2023-03-31T21:08:41.876Z,10.30
2023-03-31T21:11:09.919Z,10.30
2023-03-31T21:13:37.167Z,10.30
2023-03-31T21:16:04.820Z,10.30
2023-03-31T21:18:32.869Z,10.30
2023-03-31T21:21:01.475Z,10.30
2023-03-31T21:23:29.423Z,10.30
2023-03-31T21:25:58.023Z,10.30
2023-03-31T21:28:26.504Z,10.40
2023-03-31T21:31:00.643Z,10.30
2023-03-31T21:33:28.077Z,10.20
2023-03-31T21:35:56.602Z,10.30
2023-03-31T21:38:29.774Z,10.30
2023-03-31T21:40:57.458Z,10.30
2023-03-31T21:43:25.845Z,10.30
2023-03-31T21:45:57.544Z,10.30
2023-03-31T21:48:26.438Z,10.30
2023-03-31T21:50:56.261Z,10.30
2023-03-31T21:53:23.227Z,10.20
2023-03-31T21:55:55.164Z,10.30
2023-03-31T21:58:22.785Z,10.30
2023-03-31T22:00:49.942Z,10.40
2023-03-31T22:03:27.234Z,10.40
2023-03-31T22:05:56.676Z,10.40
2023-03-31T22:08:24.206Z,10.50
2023-03-31T22:10:54.125Z,10.50
2023-03-31T22:13:25.687Z,10.50
2023-03-31T22:15:53.427Z,10.50
2023-03-31T22:18:21.974Z,10.50
2023-03-31T22:20:49.556Z,10.50
2023-03-31T22:23:17.896Z,10.50
2023-03-31T22:25:45.106Z,10.60
2023-03-31T22:28:12.785Z,10.60
2023-03-31T22:30:40.039Z,10.60
2023-03-31T22:33:07.060Z,10.60
2023-03-31T22:35:34.840Z,10.60
2023-03-31T22:38:02.976Z,10.60
2023-03-31T22:40:30.657Z,10.60
2023-03-31T22:42:58.490Z,10.60
2023-03-31T22:45:26.359Z,10.60
2023-03-31T22:47:53.408Z,10.60
2023-03-31T22:50:21.071Z,10.60
2023-03-31T22:52:48.038Z,10.60
2023-03-31T22:55:16.995Z,10.60
2023-03-31T22:57:44.583Z,10.60
2023-03-31T23:00:12.754Z,10.70
2023-03-31T23:02:40.088Z,10.60
2023-03-31T23:05:07.795Z,10.70
2023-03-31T23:07:38.564Z,10.70
2023-03-31T23:10:07.467Z,10.60
2023-03-31T23:12:34.392Z,10.60
2023-03-31T23:15:02.227Z,10.60
2023-03-31T23:17:30.343Z,10.60
2023-03-31T23:19:57.665Z,10.60
2023-03-31T23:22:25.790Z,10.60
2023-03-31T23:24:53.132Z,10.70
2023-03-31T23:27:20.117Z,10.60
2023-03-31T23:29:47.419Z,10.60
2023-03-31T23:32:14.657Z,10.60
2023-03-31T23:34:42.232Z,10.60
2023-03-31T23:37:11.271Z,10.60
2023-03-31T23:39:38.804Z,10.60
2023-03-31T23:42:06.854Z,10.60
2023-03-31T23:44:37.218Z,10.60
2023-03-31T23:47:07.156Z,10.60
2023-03-31T23:49:34.301Z,10.50
2023-03-31T23:52:01.436Z,10.60
2023-03-31T23:54:28.950Z,10.50
2023-03-31T23:56:56.373Z,10.50
2023-03-31T23:59:23.711Z,10.50
